Maryus, Virginia
Current Conditions -  °F | °C
As of 12:02 PM on Wednesday 26 Nov 2014 (Local Time) from KPHF Reporting Station
Heavy Rain Heavy Rain  
Wind Chill: 41°   Ceiling: 1200
Heat Index: 47°   Visibility: 1.7mi
Dew Point: 42°   Wind: 14mph
Humidity: 83%   Direction: 360°N
Pressure: 29.83"   Gusts: 26mph
Location:  37.28°N, 76.4°W
Report Text: KPHF 261702Z 36012G23KT 1 3/4SM +RA OVC012 08/06 A2983 RMK AO2 PRESFR P0003 T00830056
Loading
Personal Weather Stations






























Interactive Weather Map New forecast layout! Learn more

10-Day Weather Forecast

Advertisements
Track Severe Weather on mobile